TAF PGUM
PGUM 090520Z 0906/1012 08014KT P6SM VCSH SCT020=
METAR PGUM
WC PGUM
WS PGUM
WV PGUM